Time,TemperatureF,DewpointF,PressureIn,WindDirection,WindDirectionDegrees,WindSpeedMPH,WindSpeedGustMPH,Humidity,HourlyPrecipIn,Conditions,Clouds,dailyrainin,SoftwareType,DateUTC
2013-04-16 00:03:00,62.0,55.0,29.91,SSE,147,1.0,1.0,77,0.00,,,0.00,,2013-04-16 04:03:00,
2013-04-16 00:12:00,62.0,55.0,29.91,SSE,147,1.0,1.0,77,0.00,,,0.00,,2013-04-16 04:12:00,
2013-04-16 00:23:00,62.0,55.0,29.91,SSE,147,1.0,1.0,77,0.00,,,0.00,,2013-04-16 04:23:00,
2013-04-16 00:33:00,61.0,55.0,29.90,SSE,147,0.0,2.0,80,0.00,,,0.00,,2013-04-16 04:33:00,
2013-04-16 00:42:00,61.0,55.0,29.90,SSE,147,0.0,2.0,80,0.00,,,0.00,,2013-04-16 04:42:00,
2013-04-16 00:53:00,60.0,54.0,29.90,SSE,147,0.0,2.0,80,0.00,,,0.00,,2013-04-16 04:53:00,
2013-04-16 01:02:00,60.0,54.0,29.90,SSE,147,0.0,2.0,81,0.00,,,0.00,,2013-04-16 05:02:00,
2013-04-16 01:12:00,60.0,54.0,29.90,SSE,147,0.0,2.0,81,0.00,,,0.00,,2013-04-16 05:12:00,
2013-04-16 01:22:00,60.0,54.0,29.90,SSE,148,0.0,2.0,81,0.00,,,0.00,,2013-04-16 05:22:00,
2013-04-16 01:32:00,59.0,53.0,29.90,SSE,147,0.0,0.0,81,0.00,,,0.00,,2013-04-16 05:32:00,
2013-04-16 01:42:00,59.0,53.0,29.90,SSE,147,0.0,0.0,81,0.00,,,0.00,,2013-04-16 05:42:00,
2013-04-16 01:52:00,59.0,53.0,29.90,SSE,147,0.0,0.0,81,0.00,,,0.00,,2013-04-16 05:52:00,
2013-04-16 02:02:00,57.0,52.0,29.89,SSE,148,0.0,0.0,83,0.00,,,0.00,,2013-04-16 06:02:00,
2013-04-16 02:12:00,57.0,52.0,29.89,SSE,148,0.0,0.0,83,0.00,,,0.00,,2013-04-16 06:12:00,
2013-04-16 02:22:00,57.0,52.0,29.89,SSE,148,0.0,0.0,83,0.00,,,0.00,,2013-04-16 06:22:00,
2013-04-16 02:32:00,57.0,52.0,29.89,SSE,148,0.0,0.0,83,0.00,,,0.00,,2013-04-16 06:32:00,
2013-04-16 02:42:00,57.0,52.0,29.89,SSE,148,0.0,0.0,83,0.00,,,0.00,,2013-04-16 06:42:00,
2013-04-16 03:22:00,56.0,53.0,29.90,SW,214,0.0,3.0,89,0.00,,,0.00,,2013-04-16 07:22:00,
2013-04-16 03:32:00,56.0,53.0,29.90,SW,214,0.0,3.0,89,0.00,,,0.00,,2013-04-16 07:32:00,
2013-04-16 03:42:00,56.0,53.0,29.90,SW,214,0.0,3.0,89,0.00,,,0.00,,2013-04-16 07:42:00,
2013-04-16 03:53:00,55.0,52.0,29.89,SW,215,0.0,0.0,88,0.00,,,0.00,,2013-04-16 07:53:00,
2013-04-16 04:02:00,55.0,51.0,29.89,SW,214,0.0,0.0,87,0.00,,,0.00,,2013-04-16 08:02:00,
2013-04-16 04:12:00,55.0,51.0,29.89,SW,214,0.0,0.0,87,0.00,,,0.00,,2013-04-16 08:12:00,
2013-04-16 04:22:00,54.0,51.0,29.90,SW,215,0.0,0.0,88,0.00,,,0.00,,2013-04-16 08:22:00,
2013-04-16 04:32:00,54.0,51.0,29.90,SW,215,0.0,0.0,88,0.00,,,0.00,,2013-04-16 08:32:00,
2013-04-16 04:42:00,54.0,51.0,29.90,SW,215,0.0,0.0,88,0.00,,,0.00,,2013-04-16 08:42:00,
2013-04-16 04:52:00,54.0,51.0,29.90,SW,215,0.0,0.0,88,0.00,,,0.00,,2013-04-16 08:52:00,
2013-04-16 05:02:00,58.0,55.0,29.92,WSW,245,2.0,10.0,91,0.00,,,0.00,,2013-04-16 09:02:00,
2013-04-16 05:12:00,58.0,55.0,29.92,WSW,245,2.0,10.0,91,0.00,,,0.00,,2013-04-16 09:12:00,
2013-04-16 05:22:00,58.0,55.0,29.92,WSW,245,2.0,10.0,91,0.00,,,0.00,,2013-04-16 09:22:00,
2013-04-16 05:33:00,58.0,55.0,29.92,WSW,245,2.0,10.0,91,0.00,,,0.00,,2013-04-16 09:33:00,
2013-04-16 05:42:00,58.0,55.0,29.92,WSW,245,2.0,10.0,91,0.00,,,0.00,,2013-04-16 09:42:00,
2013-04-16 06:03:00,65.0,60.0,29.95,WSW,250,2.0,10.0,83,0.00,,,0.00,,2013-04-16 10:03:00,
2013-04-16 06:13:00,65.0,60.0,29.95,WSW,250,2.0,10.0,83,0.00,,,0.00,,2013-04-16 10:13:00,
2013-04-16 06:23:00,65.0,60.0,29.95,SSW,192,6.0,12.0,83,0.00,,,0.00,,2013-04-16 10:23:00,
2013-04-16 06:33:00,66.0,60.0,29.96,WNW,289,3.0,15.0,82,0.00,,,0.00,,2013-04-16 10:33:00,
2013-04-16 06:42:00,66.0,60.0,29.96,WNW,289,3.0,15.0,82,0.00,,,0.00,,2013-04-16 10:42:00,
2013-04-16 06:52:00,66.0,60.0,29.96,SW,219,6.0,15.0,82,0.00,,,0.00,,2013-04-16 10:52:00,
2013-04-16 07:02:00,66.0,60.0,29.97,SSW,203,6.0,15.0,82,0.00,,,0.00,,2013-04-16 11:02:00,
2013-04-16 07:12:00,66.0,60.0,29.97,SSW,203,6.0,15.0,82,0.00,,,0.00,,2013-04-16 11:12:00,
2013-04-16 07:22:00,67.0,61.0,29.98,SW,216,4.0,15.0,81,0.00,,,0.00,,2013-04-16 11:22:00,
2013-04-16 07:32:00,67.0,61.0,29.99,SSW,213,2.0,9.0,81,0.00,,,0.00,,2013-04-16 11:32:00,
2013-04-16 07:42:00,67.0,61.0,29.99,SSW,213,2.0,9.0,81,0.00,,,0.00,,2013-04-16 11:42:00,
2013-04-16 07:52:00,67.0,61.0,29.99,SSW,213,2.0,9.0,81,0.00,,,0.00,,2013-04-16 11:52:00,
2013-04-16 08:02:00,67.0,61.0,30.01,South,189,7.0,11.0,82,0.00,,,0.00,,2013-04-16 12:02:00,
2013-04-16 08:12:00,67.0,61.0,30.01,South,189,7.0,11.0,82,0.00,,,0.00,,2013-04-16 12:12:00,
2013-04-16 08:22:00,67.0,61.0,30.01,SSW,197,3.0,11.0,82,0.00,,,0.00,,2013-04-16 12:22:00,
2013-04-16 08:32:00,67.0,61.0,30.03,SW,224,4.0,11.0,81,0.00,,,0.00,,2013-04-16 12:32:00,
2013-04-16 08:42:00,67.0,61.0,30.03,SW,224,4.0,11.0,81,0.00,,,0.00,,2013-04-16 12:42:00,
2013-04-16 08:52:00,67.0,61.0,30.03,SW,224,4.0,11.0,81,0.00,,,0.00,,2013-04-16 12:52:00,
2013-04-16 09:02:00,66.0,61.0,30.06,West,271,5.0,12.0,85,0.01,,,0.01,,2013-04-16 13:02:00,
2013-04-16 09:12:00,66.0,61.0,30.06,West,271,5.0,12.0,85,0.01,,,0.01,,2013-04-16 13:12:00,
2013-04-16 09:22:00,66.0,61.0,30.06,West,271,5.0,12.0,85,0.01,,,0.01,,2013-04-16 13:22:00,
2013-04-16 09:32:00,64.0,60.0,30.06,WNW,295,1.0,4.0,87,0.01,,,0.01,,2013-04-16 13:32:00,
2013-04-16 09:42:00,64.0,60.0,30.06,WNW,295,1.0,4.0,87,0.01,,,0.01,,2013-04-16 13:42:00,
2013-04-16 09:52:00,64.0,60.0,30.05,West,280,0.0,4.0,88,0.01,,,0.01,,2013-04-16 13:52:00,
2013-04-16 10:02:00,64.0,60.0,30.04,West,280,1.0,4.0,88,0.01,,,0.01,,2013-04-16 14:02:00,
2013-04-16 10:12:00,64.0,60.0,30.04,West,280,1.0,4.0,88,0.01,,,0.01,,2013-04-16 14:12:00,
2013-04-16 10:22:00,64.0,60.0,30.04,West,280,1.0,4.0,88,0.01,,,0.01,,2013-04-16 14:22:00,
2013-04-16 10:32:00,64.0,60.0,30.04,West,280,1.0,4.0,88,0.01,,,0.01,,2013-04-16 14:32:00,
2013-04-16 11:02:00,68.0,63.0,30.03,SSW,209,4.0,8.0,85,0.00,,,0.01,,2013-04-16 15:02:00,
2013-04-16 11:12:00,68.0,63.0,30.03,SSW,209,4.0,8.0,85,0.00,,,0.01,,2013-04-16 15:12:00,
2013-04-16 11:22:00,68.0,63.0,30.03,SSW,209,4.0,8.0,85,0.00,,,0.01,,2013-04-16 15:22:00,
2013-04-16 11:33:00,71.0,64.0,30.03,SE,139,3.0,10.0,79,0.00,,,0.01,,2013-04-16 15:33:00,
2013-04-16 11:43:00,71.0,64.0,30.03,SE,139,3.0,10.0,79,0.00,,,0.01,,2013-04-16 15:43:00,
2013-04-16 11:53:00,71.0,64.0,30.03,SE,139,3.0,10.0,79,0.00,,,0.01,,2013-04-16 15:53:00,
2013-04-16 12:03:00,73.0,65.0,30.03,SSW,213,3.0,10.0,76,0.00,,,0.01,,2013-04-16 16:03:00,
2013-04-16 12:13:00,73.0,65.0,30.03,SSW,213,3.0,10.0,76,0.00,,,0.01,,2013-04-16 16:13:00,
2013-04-16 12:23:00,75.0,66.0,30.04,South,172,5.0,15.0,73,0.00,,,0.01,,2013-04-16 16:23:00,
2013-04-16 12:32:00,74.0,66.0,30.04,SSW,210,3.0,11.0,75,0.00,,,0.01,,2013-04-16 16:32:00,
2013-04-16 12:42:00,74.0,66.0,30.04,SSW,210,3.0,11.0,75,0.00,,,0.01,,2013-04-16 16:42:00,
2013-04-16 12:52:00,74.0,66.0,30.04,South,179,3.0,11.0,75,0.00,,,0.01,,2013-04-16 16:52:00,
2013-04-16 13:02:00,74.0,66.0,30.04,South,179,3.0,11.0,75,0.00,,,0.01,,2013-04-16 17:02:00,
2013-04-16 13:12:00,74.0,66.0,30.04,South,179,3.0,11.0,75,0.00,,,0.01,,2013-04-16 17:12:00,
2013-04-16 13:22:00,74.0,66.0,30.03,SSE,168,3.0,11.0,75,0.00,,,0.01,,2013-04-16 17:22:00,
2013-04-16 13:32:00,73.0,65.0,30.02,SSE,163,3.0,9.0,76,0.00,,,0.01,,2013-04-16 17:32:00,
2013-04-16 13:43:00,73.0,65.0,30.02,SSE,163,3.0,9.0,76,0.00,,,0.01,,2013-04-16 17:43:00,
2013-04-16 13:52:00,74.0,66.0,30.02,SW,220,2.0,9.0,75,0.00,,,0.01,,2013-04-16 17:52:00,
2013-04-16 14:02:00,75.0,66.0,30.02,South,170,3.0,9.0,74,0.00,,,0.01,,2013-04-16 18:02:00,
2013-04-16 14:12:00,75.0,66.0,30.02,South,170,3.0,9.0,74,0.00,,,0.01,,2013-04-16 18:12:00,
2013-04-16 14:22:00,76.0,66.0,30.02,South,183,4.0,10.0,72,0.00,,,0.01,,2013-04-16 18:22:00,
2013-04-16 14:32:00,75.0,66.0,30.02,WSW,245,5.0,11.0,73,0.00,,,0.01,,2013-04-16 18:32:00,
2013-04-16 14:42:00,75.0,66.0,30.02,WSW,245,5.0,11.0,73,0.00,,,0.01,,2013-04-16 18:42:00,
2013-04-16 14:52:00,75.0,66.0,30.02,WSW,245,5.0,11.0,73,0.00,,,0.01,,2013-04-16 18:52:00,
2013-04-16 15:02:00,74.0,65.0,30.02,WSW,239,4.0,11.0,74,0.00,,,0.01,,2013-04-16 19:02:00,
2013-04-16 15:12:00,74.0,65.0,30.02,WSW,239,4.0,11.0,74,0.00,,,0.01,,2013-04-16 19:12:00,
2013-04-16 15:22:00,74.0,65.0,30.02,WSW,239,4.0,11.0,74,0.00,,,0.01,,2013-04-16 19:22:00,
2013-04-16 15:32:00,74.0,65.0,30.02,WSW,239,4.0,11.0,74,0.00,,,0.01,,2013-04-16 19:32:00,
2013-04-16 15:42:00,74.0,65.0,30.02,WSW,239,4.0,11.0,74,0.00,,,0.01,,2013-04-16 19:42:00,
2013-04-16 15:52:00,75.0,67.0,30.02,SW,222,2.0,6.0,75,0.00,,,0.01,,2013-04-16 19:52:00,
2013-04-16 16:02:00,76.0,67.0,30.02,WSW,241,3.0,10.0,75,0.00,,,0.01,,2013-04-16 20:02:00,
2013-04-16 16:12:00,76.0,67.0,30.02,WSW,241,3.0,10.0,75,0.00,,,0.01,,2013-04-16 20:12:00,
2013-04-16 16:22:00,76.0,67.0,30.02,West,280,3.0,10.0,74,0.00,,,0.01,,2013-04-16 20:22:00,
2013-04-16 16:32:00,76.0,67.0,30.03,West,272,3.0,6.0,75,0.00,,,0.01,,2013-04-16 20:32:00,
2013-04-16 16:42:00,76.0,67.0,30.03,West,272,3.0,6.0,75,0.00,,,0.01,,2013-04-16 20:42:00,
2013-04-16 16:52:00,73.0,63.0,30.03,WNW,295,4.0,10.0,70,0.00,,,0.01,,2013-04-16 20:52:00,
2013-04-16 17:02:00,69.0,60.0,30.04,NE,36,5.0,10.0,72,0.00,,,0.01,,2013-04-16 21:02:00,
2013-04-16 17:12:00,69.0,60.0,30.04,NE,36,5.0,10.0,72,0.00,,,0.01,,2013-04-16 21:12:00,
2013-04-16 17:22:00,69.0,60.0,30.04,NE,36,5.0,10.0,72,0.00,,,0.01,,2013-04-16 21:22:00,
2013-04-16 17:32:00,65.0,58.0,30.03,NE,41,5.0,12.0,78,0.00,,,0.01,,2013-04-16 21:32:00,
2013-04-16 17:43:00,65.0,58.0,30.03,NE,41,5.0,12.0,78,0.00,,,0.01,,2013-04-16 21:43:00,
2013-04-16 17:53:00,65.0,58.0,30.03,NE,41,5.0,12.0,78,0.00,,,0.01,,2013-04-16 21:53:00,
2013-04-16 18:02:00,66.0,59.0,30.05,NNE,27,2.0,12.0,77,0.00,,,0.01,,2013-04-16 22:02:00,
2013-04-16 18:13:00,66.0,59.0,30.05,NNE,27,2.0,12.0,77,0.00,,,0.01,,2013-04-16 22:13:00,
2013-04-16 18:22:00,66.0,59.0,30.05,NNE,27,2.0,12.0,77,0.00,,,0.01,,2013-04-16 22:22:00,
2013-04-16 18:33:00,65.0,58.0,30.05,NNE,14,5.0,10.0,78,0.00,,,0.01,,2013-04-16 22:33:00,
2013-04-16 18:42:00,65.0,58.0,30.05,NNE,14,5.0,10.0,78,0.00,,,0.01,,2013-04-16 22:42:00,
2013-04-16 18:52:00,65.0,58.0,30.05,NE,51,3.0,10.0,78,0.00,,,0.01,,2013-04-16 22:52:00,
2013-04-16 19:02:00,65.0,58.0,30.05,NE,51,3.0,10.0,78,0.00,,,0.01,,2013-04-16 23:02:00,
2013-04-16 19:12:00,65.0,58.0,30.05,NE,51,3.0,10.0,78,0.00,,,0.01,,2013-04-16 23:12:00,
2013-04-16 19:22:00,64.0,59.0,30.05,NE,52,2.0,12.0,83,0.05,,,0.06,,2013-04-16 23:22:00,
2013-04-16 19:32:00,63.0,60.0,30.04,NNE,25,0.0,3.0,89,0.06,,,0.07,,2013-04-16 23:32:00,
2013-04-16 19:42:00,63.0,60.0,30.04,NNE,25,0.0,3.0,89,0.06,,,0.07,,2013-04-16 23:42:00,
2013-04-16 19:52:00,62.0,59.0,30.04,NNE,25,2.0,3.0,90,0.06,,,0.07,,2013-04-16 23:52:00,
2013-04-16 20:02:00,62.0,60.0,30.05,NNE,30,2.0,3.0,92,0.06,,,0.07,,2013-04-17 00:02:00,
2013-04-16 20:12:00,62.0,60.0,30.05,NNE,30,2.0,3.0,92,0.06,,,0.07,,2013-04-17 00:12:00,
2013-04-16 20:22:00,62.0,60.0,30.06,NNE,30,0.0,3.0,92,0.06,,,0.07,,2013-04-17 00:22:00,
2013-04-16 20:32:00,62.0,60.0,30.06,NNE,31,3.0,3.0,93,0.01,,,0.07,,2013-04-17 00:32:00,
2013-04-16 20:42:00,62.0,60.0,30.06,NNE,31,3.0,3.0,93,0.01,,,0.07,,2013-04-17 00:42:00,
2013-04-16 20:52:00,62.0,60.0,30.07,South,181,1.0,4.0,93,0.03,,,0.09,,2013-04-17 00:52:00,
2013-04-16 21:02:00,62.0,60.0,30.07,South,181,1.0,4.0,93,0.03,,,0.09,,2013-04-17 01:02:00,
2013-04-16 21:12:00,62.0,60.0,30.07,South,181,1.0,4.0,93,0.03,,,0.09,,2013-04-17 01:12:00,
2013-04-16 21:22:00,62.0,60.0,30.07,South,181,1.0,4.0,93,0.03,,,0.09,,2013-04-17 01:22:00,
2013-04-16 21:32:00,61.0,60.0,30.09,NE,38,2.0,3.0,95,0.04,,,0.11,,2013-04-17 01:32:00,
2013-04-16 21:42:00,61.0,60.0,30.09,NE,38,2.0,3.0,95,0.04,,,0.11,,2013-04-17 01:42:00,
2013-04-16 21:52:00,61.0,60.0,30.09,NE,39,0.0,3.0,95,0.04,,,0.11,,2013-04-17 01:52:00,
2013-04-16 22:02:00,61.0,60.0,30.09,NE,48,1.0,3.0,95,0.04,,,0.11,,2013-04-17 02:02:00,
2013-04-16 22:12:00,61.0,60.0,30.09,NE,48,1.0,3.0,95,0.04,,,0.11,,2013-04-17 02:12:00,
2013-04-16 22:22:00,60.0,58.0,30.09,ENE,73,2.0,4.0,94,0.04,,,0.11,,2013-04-17 02:22:00,
2013-04-16 22:32:00,60.0,58.0,30.09,ENE,61,2.0,3.0,94,0.00,,,0.11,,2013-04-17 02:32:00,
2013-04-16 22:42:00,60.0,58.0,30.09,ENE,61,2.0,3.0,94,0.00,,,0.11,,2013-04-17 02:42:00,
2013-04-16 22:52:00,60.0,58.0,30.09,ENE,61,2.0,3.0,94,0.00,,,0.11,,2013-04-17 02:52:00,
2013-04-16 23:02:00,59.0,57.0,30.12,NE,37,3.0,4.0,94,0.00,,,0.11,,2013-04-17 03:02:00,
2013-04-16 23:12:00,59.0,57.0,30.12,NE,37,3.0,4.0,94,0.00,,,0.11,,2013-04-17 03:12:00,
2013-04-16 23:22:00,59.0,57.0,30.12,NNE,33,2.0,4.0,94,0.00,,,0.11,,2013-04-17 03:22:00,
2013-04-16 23:33:00,59.0,57.0,30.11,NE,35,1.0,3.0,94,0.00,,,0.11,,2013-04-17 03:33:00,
2013-04-16 23:42:00,59.0,57.0,30.11,NE,35,1.0,3.0,94,0.00,,,0.11,,2013-04-17 03:42:00,
2013-04-16 23:53:00,59.0,57.0,30.11,NE,35,1.0,3.0,94,0.00,,,0.11,,2013-04-17 03:53:00,